Weather History for Tracy, MN

Change the Weather History Date:

Sunday, February 23, 2014

  Actual Average (KMML) Record (KMML)
Temperature  
Mean Temperature 16 °F -  
Max Temperature 24 °F 31 °F 57 °F (2002)
Min Temperature 7 °F 13 °F -11 °F (1993)
Degree Days  
Heating Degree Days 50    
Moisture  
Dew Point 6 °F    
Average Humidity 68    
Maximum Humidity 76    
Minimum Humidity 57    
Precipitation  
Precipitation 0.00 in - - ()
Sea Level Pressure  
Sea Level Pressure 30.26 in    
Wind  
Wind Speed 9 mph (NW)    
Max Wind Speed 17 mph    
Max Gust Speed 23 mph    
Visibility 10 miles    
Events      
Averages and records for this station are not official NWS values.
T = Trace of Precipitation, MM = Missing Value Source: NWS Daily Summary

Daily Weather History Graph

Daily Weather History Graph

Search for Another Location

Airport:

Trip Planner

Search our weather history database for the weather conditions in past years. The results will help you decide how hot, cold, wet, or windy it might be!

Date:

Astronomy

Feb. 23, 2014 Rise Set
Actual Time 7:09 AM CST 6:02 PM CST
Civil Twilight 6:40 AM CST 6:32 PM CST
Nautical Twilight 6:06 AM CST 7:05 PM CST
Astronomical Twilight 5:33 AM CST 7:39 PM CST
Moon 2:15 AM CST (2/23) 11:59 AM CST (2/23)
Length of Visible Light 11h 51m
Length of Day
10h 53m
Last Quarter, 38% of the Moon is Illuminated
Feb 23
Last Quarter
Mar 1
New
Mar 8
First Quarter
Mar 16
Full
Mar 23
Last Quarter

Hourly Weather History & Observations

Time (CST) Temp. Windchill Dew Point Humidity Pressure Visibility Wind Dir Wind Speed Gust Speed Precip Events Conditions
12:17 AM 12.9 °F -0.2 °F 4.8 °F 70% 30.18 in 10.0 mi WNW 10.4 mph - N/A   Clear
12:37 AM 12.2 °F -1.8 °F 4.8 °F 72% 30.19 in 10.0 mi NW 11.5 mph - N/A   Clear
12:57 AM 11.7 °F -2.5 °F 4.6 °F 73% 30.19 in 10.0 mi NW 11.5 mph - N/A   Clear
1:17 AM 11.1 °F -2.4 °F 4.5 °F 75% 30.20 in 10.0 mi NW 10.4 mph - N/A   Clear
1:38 AM 10.9 °F 1.4 °F 4.1 °F 74% 30.20 in 10.0 mi WNW 5.8 mph - N/A   Clear
1:58 AM 10.8 °F - 3.7 °F 73% 30.21 in 10.0 mi Calm Calm - N/A   Clear
2:18 AM 10.4 °F -1.5 °F 3.4 °F 73% 30.21 in 10.0 mi WNW 8.1 mph - N/A   Clear
2:37 AM 10.4 °F -0.4 °F 3.2 °F 73% 30.21 in 10.0 mi WNW 6.9 mph - N/A   Clear
2:57 AM 9.9 °F 3.4 °F 3.2 °F 74% 30.21 in 10.0 mi West 3.5 mph - N/A   Clear
3:17 AM 9.5 °F 3.0 °F 3.0 °F 75% 30.21 in 10.0 mi WNW 3.5 mph - N/A   Clear
3:38 AM 9.1 °F 0.8 °F 2.7 °F 75% 30.21 in 10.0 mi WNW 4.6 mph - N/A   Clear
3:57 AM 8.6 °F - 2.3 °F 76% 30.20 in 10.0 mi Calm Calm - N/A   Clear
4:18 AM 8.6 °F - 2.1 °F 75% 30.20 in 10.0 mi Calm Calm - N/A   Clear
4:38 AM 8.8 °F 2.2 °F 1.9 °F 74% 30.20 in 10.0 mi West 3.5 mph - N/A   Clear
4:57 AM 7.9 °F - 1.4 °F 75% 30.20 in 10.0 mi Calm Calm - N/A   Clear
5:17 AM 8.4 °F - 1.4 °F 73% 30.20 in 10.0 mi Calm Calm - N/A   Clear
5:37 AM 9.1 °F 0.8 °F 1.9 °F 73% 30.21 in 10.0 mi WNW 4.6 mph - N/A   Clear
5:58 AM 9.1 °F -4.9 °F 2.1 °F 73% 30.21 in 10.0 mi WNW 10.4 mph - N/A   Clear
6:18 AM 9.1 °F -5.6 °F 2.1 °F 73% 30.22 in 10.0 mi WNW 11.5 mph - N/A   Clear
6:38 AM 9.0 °F -4.2 °F 1.9 °F 73% 30.22 in 10.0 mi WNW 9.2 mph - N/A   Clear
6:58 AM 8.8 °F -5.3 °F 1.8 °F 73% 30.23 in 10.0 mi NW 10.4 mph - N/A   Scattered Clouds
7:18 AM 8.6 °F 0.1 °F 1.4 °F 73% 30.23 in 10.0 mi WNW 4.6 mph - N/A   Clear
7:37 AM 8.6 °F -2.6 °F 1.0 °F 71% 30.24 in 10.0 mi West 6.9 mph - N/A   Clear
7:57 AM 9.3 °F - 1.4 °F 70% 30.25 in 10.0 mi Calm Calm - N/A   Clear
8:18 AM 9.9 °F - 1.8 °F 70% 30.26 in 10.0 mi Calm Calm - N/A   Clear
8:37 AM 11.3 °F 0.7 °F 2.3 °F 67% 30.26 in 10.0 mi West 6.9 mph - N/A   Clear
8:57 AM 11.8 °F -3.6 °F 2.5 °F 66% 30.27 in 10.0 mi NW 13.8 mph 18.4 mph N/A   Clear
9:18 AM 12.7 °F -3.6 °F 3.4 °F 66% 30.27 in 10.0 mi NW 16.1 mph - N/A   Clear
9:38 AM 13.3 °F -1.8 °F 4.1 °F 67% 30.27 in 10.0 mi NW 13.8 mph 20.7 mph N/A   Clear
9:58 AM 14.0 °F -0.8 °F 3.9 °F 64% 30.28 in 10.0 mi WNW 13.8 mph - N/A   Clear
10:18 AM 15.1 °F -0.6 °F 5.0 °F 64% 30.28 in 10.0 mi NW 16.1 mph 20.7 mph N/A   Clear
10:37 AM 15.6 °F 1.2 °F 5.2 °F 63% 30.28 in 10.0 mi NW 13.8 mph - N/A   Clear
10:58 AM 16.7 °F 2.0 °F 5.9 °F 63% 30.28 in 10.0 mi NW 15.0 mph 19.6 mph N/A   Clear
11:18 AM 17.6 °F 3.2 °F 7.0 °F 63% 30.28 in 10.0 mi NW 15.0 mph - N/A   Clear
11:38 AM 18.3 °F 5.2 °F 7.0 °F 61% 30.28 in 10.0 mi NW 12.7 mph 17.3 mph N/A   Clear
11:57 AM 19.6 °F 6.2 °F 8.2 °F 61% 30.28 in 10.0 mi NW 13.8 mph - N/A   Clear
12:17 PM 19.9 °F 6.7 °F 8.4 °F 61% 30.28 in 10.0 mi NW 13.8 mph 18.4 mph N/A   Clear
12:37 PM 21.0 °F 9.3 °F 9.0 °F 60% 30.28 in 10.0 mi WNW 11.5 mph 20.7 mph N/A   Clear
12:57 PM 21.7 °F 9.0 °F 9.5 °F 59% 30.27 in 10.0 mi WNW 13.8 mph 20.7 mph N/A   Clear
1:17 PM 22.3 °F 8.2 °F 9.9 °F 59% 30.27 in 10.0 mi NW 17.3 mph 21.9 mph N/A   Clear
1:37 PM 23.2 °F 10.3 °F 10.9 °F 60% 30.27 in 10.0 mi NW 15.0 mph 23.0 mph N/A   Clear
1:58 PM 23.2 °F 11.4 °F 10.6 °F 59% 30.27 in 10.0 mi WNW 12.7 mph 20.7 mph N/A   Clear
2:18 PM 23.7 °F 11.0 °F 11.3 °F 59% 30.26 in 10.0 mi NW 15.0 mph 23.0 mph N/A   Clear
2:38 PM 24.3 °F 12.2 °F 11.1 °F 57% 30.26 in 10.0 mi NNW 13.8 mph 19.6 mph N/A   Clear
2:58 PM 23.9 °F 11.2 °F 10.9 °F 58% 30.26 in 10.0 mi NW 15.0 mph - N/A   Clear
3:18 PM 24.6 °F 11.7 °F 11.5 °F 57% 30.26 in 10.0 mi NW 16.1 mph 20.7 mph N/A   Clear
3:38 PM 24.3 °F 11.2 °F 11.5 °F 58% 30.26 in 10.0 mi NW 16.1 mph 19.6 mph N/A   Clear
3:58 PM 24.3 °F 11.7 °F 11.3 °F 58% 30.26 in 10.0 mi NW 15.0 mph - N/A   Clear
4:17 PM 24.3 °F 12.2 °F 11.5 °F 58% 30.26 in 10.0 mi NW 13.8 mph 21.9 mph N/A   Clear
4:37 PM 24.1 °F 13.7 °F 11.5 °F 59% 30.26 in 10.0 mi WNW 10.4 mph 18.4 mph N/A   Clear
4:57 PM 23.5 °F 10.3 °F 11.1 °F 59% 30.26 in 10.0 mi NW 16.1 mph 20.7 mph N/A   Clear
5:18 PM 22.8 °F 10.4 °F 10.9 °F 60% 30.27 in 10.0 mi NW 13.8 mph 19.6 mph N/A   Clear
5:38 PM 22.1 °F 10.6 °F 11.5 °F 64% 30.27 in 10.0 mi WNW 11.5 mph - N/A   Scattered Clouds
5:58 PM 21.0 °F 9.9 °F 10.9 °F 65% 30.27 in 10.0 mi WNW 10.4 mph 16.1 mph N/A   Scattered Clouds
6:18 PM 20.3 °F 9.0 °F 10.2 °F 65% 30.28 in 10.0 mi WNW 10.4 mph 17.3 mph N/A   Scattered Clouds
6:37 PM 19.8 °F 9.9 °F 10.2 °F 67% 30.28 in 10.0 mi WNW 8.1 mph - N/A   Clear
6:57 PM 18.7 °F 7.8 °F 9.5 °F 67% 30.28 in 10.0 mi WNW 9.2 mph - N/A   Clear
7:18 PM 18.3 °F 10.2 °F 9.3 °F 68% 30.29 in 10.0 mi WNW 5.8 mph - N/A   Clear
7:37 PM 17.6 °F 9.3 °F 9.0 °F 69% 30.28 in 10.0 mi WNW 5.8 mph - N/A   Clear
7:57 PM 17.2 °F 7.8 °F 8.6 °F 69% 30.29 in 10.0 mi WNW 6.9 mph - N/A   Clear
8:18 PM 16.7 °F 5.3 °F 8.4 °F 70% 30.29 in 10.0 mi WNW 9.2 mph - N/A   Clear
8:37 PM 16.0 °F 7.4 °F 8.4 °F 72% 30.30 in 10.0 mi WNW 5.8 mph - N/A   Clear
8:57 PM 15.3 °F 7.9 °F 8.1 °F 73% 30.30 in 10.0 mi WNW 4.6 mph - N/A   Clear
9:18 PM 15.1 °F 2.5 °F 7.9 °F 73% 30.31 in 10.0 mi NW 10.4 mph - N/A   Clear
9:37 PM 14.9 °F 2.3 °F 7.7 °F 73% 30.31 in 10.0 mi NW 10.4 mph - N/A   Clear
9:57 PM 14.4 °F 1.6 °F 7.5 °F 74% 30.31 in 10.0 mi NW 10.4 mph - N/A   Clear
10:18 PM 13.8 °F -0.5 °F 6.8 °F 74% 30.31 in 10.0 mi NW 12.7 mph - N/A   Clear
10:38 PM 13.1 °F -0.7 °F 6.3 °F 74% 30.31 in 10.0 mi NW 11.5 mph - N/A   Clear
10:58 PM 12.6 °F -0.6 °F 5.7 °F 74% 30.32 in 10.0 mi NW 10.4 mph - N/A   Clear
11:18 PM 11.8 °F -2.3 °F 5.4 °F 75% 30.32 in 10.0 mi NW 11.5 mph - N/A   Clear
11:38 PM 11.7 °F -0.9 °F 5.0 °F 75% 30.32 in 10.0 mi WNW 9.2 mph - N/A   Clear
11:58 PM 11.3 °F -3.6 °F 4.6 °F 75% 30.32 in 10.0 mi NW 12.7 mph - N/A   Clear